Frederick Regional Airport


Codes: KFDR/FDR
Name: Frederick Regional Airport
City: Frederick
Country: United States
Elevation: 1258 ft.
Wikipedia:

Photos at Frederick Regional Airport


   Photos courtesy of SpottingLog. You can add your own sightings and photos by signing up for a free trial today.



No photos found.

Weather at Frederick Regional Airport


Time (UTC)DescriptionTempratureWindCloud coverageVisibilityPressureHumidity
16-Jun-2024 09:00Light Rain24°C11 mph, SE0%10000m1009hPa73%
16-Jun-2024 12:00Scattered Clouds24°C13 mph, S33%10000m1009hPa74%
16-Jun-2024 15:00Scattered Clouds27°C16 mph, S34%10000m1010hPa66%
16-Jun-2024 18:00Broken Clouds32°C13 mph, S70%10000m1009hPa45%
16-Jun-2024 21:00Clear Sky35°C16 mph, S8%10000m1007hPa38%
17-Jun-2024 00:00Clear Sky33°C18 mph, S5%10000m1006hPa43%
17-Jun-2024 03:00Light Rain28°C18 mph, SE7%10000m1008hPa57%
17-Jun-2024 06:00Clear Sky26°C18 mph, S3%10000m1008hPa61%
17-Jun-2024 09:00Clear Sky26°C18 mph, SE0%10000m1007hPa60%
17-Jun-2024 12:00Clear Sky24°C13 mph, S0%10000m1008hPa73%
17-Jun-2024 15:00Clear Sky29°C18 mph, S0%10000m1008hPa57%
17-Jun-2024 18:00Clear Sky33°C20 mph, S0%10000m1007hPa43%
17-Jun-2024 21:00Clear Sky34°C22 mph, S0%10000m1005hPa39%
18-Jun-2024 00:00Clear Sky33°C18 mph, S0%10000m1004hPa42%
18-Jun-2024 03:00Few Clouds28°C22 mph, SE21%10000m1007hPa66%
18-Jun-2024 06:00Few Clouds26°C25 mph, SE11%10000m1006hPa73%
18-Jun-2024 09:00Clear Sky24°C20 mph, S0%10000m1007hPa78%
18-Jun-2024 12:00Clear Sky23°C18 mph, S10%10000m1008hPa83%
18-Jun-2024 15:00Broken Clouds25°C20 mph, S73%10000m1009hPa74%
18-Jun-2024 18:00Overcast Clouds28°C20 mph, S87%10000m1009hPa62%
18-Jun-2024 21:00Scattered Clouds32°C22 mph, SE33%10000m1007hPa49%
19-Jun-2024 00:00Scattered Clouds31°C20 mph, SE30%10000m1007hPa53%
19-Jun-2024 03:00Light Rain27°C18 mph, SE100%10000m1010hPa68%
19-Jun-2024 06:00Broken Clouds24°C20 mph, SE68%10000m1010hPa82%
19-Jun-2024 09:00Broken Clouds22°C16 mph, SE56%10000m1012hPa85%
19-Jun-2024 12:00Light Rain22°C11 mph, SE77%10000m1013hPa82%
19-Jun-2024 15:00Light Rain23°C11 mph, E96%10000m1016hPa82%
19-Jun-2024 18:00Overcast Clouds25°C16 mph, SE98%10000m1016hPa72%
19-Jun-2024 21:00Overcast Clouds23°C16 mph, E100%10000m1016hPa77%
20-Jun-2024 00:00Light Rain23°C16 mph, E100%10000m1017hPa85%
20-Jun-2024 03:00Light Rain22°C13 mph, E100%10000m1019hPa88%
20-Jun-2024 06:00Light Rain21°C13 mph, E100%10000m1019hPa90%
20-Jun-2024 09:00Light Rain21°C13 mph, E100%10000m1019hPa94%
20-Jun-2024 12:00Light Rain20°C13 mph, E100%10000m1020hPa93%
20-Jun-2024 15:00Light Rain20°C16 mph, E100%10000m1022hPa89%
20-Jun-2024 18:00Light Rain20°C16 mph, E100%10000m1022hPa86%
20-Jun-2024 21:00Light Rain21°C13 mph, E100%10000m1022hPa84%
21-Jun-2024 00:00Overcast Clouds21°C9 mph, NE100%10000m1021hPa86%
21-Jun-2024 03:00Overcast Clouds20°C4 mph, NE100%10000m1021hPa85%
21-Jun-2024 06:00Overcast Clouds20°C7 mph, NE100%10000m1021hPa79%